Pagrindinis puslapis
METAR-TAF:

METAR-TAF

Oro uostai :

Santorinas, Graikija

platuma: 36-24N, ilguma: 025-29E, Aukštis: 38 m

Dabartinis oras

Ataskaita buvo paskelbta 12 minutes, ne 18:50 UTC
Vėjas 15 kt iš Šiaurės/Šiaurės Vakarų
Temperatūra 23°C
Drėgmė 69%
Slėgis 1015 hPa
Matomumas 10 km arba daugiau
nėra debesų žemiau 1500 m ir nėra kamuolinių lietaus debesų

METAR: LGSR 151850Z 34015KT CAVOK 23/17 Q1015

Laikas: 22:02 (19:02 UTC)

Prognozė

Ataskaita buvo paskelbta 2 valandos ir 2 minutes, ne 17:00 UTC
Prognozė galioja nuo 15 metu 18 UTC su 16 metu 18 UTC
Vėjas 25 kt iš Šiaurės
Matomumas 10 km arba daugiau
Mažai debesys ne aukštis 3000 ft
Tapsmas
nuo 16 metu 10 UTC su 16 metu 12 UTC
Vėjas 12 kt iš Šiaurės

TAF: LGSR 151700Z 1518/1618 35025KT 9999 FEW030 BECMG 1610/1612 35012KT

Orai ataskaitas ir orų prognozės (METAR, TAF).

turimą stotys yra geltonos ir raudonos taškus žemėlapyje.

Perkelti pele per norėdami pamatyti stoties vardą.

Tada spustelėkite, norėdami matyti oro stebėjimo ir prognozės.

Norėdami pakeisti žemėlapį: spustelėkite ant žalios mygtukų su juodo kryžiaus žemyn,; žalią mygtuką su brūkšneliu, jei norite nutolinti; arba žalių rodyklių gretimoms žemėlapius.


METAR-TAF: